Terminal Aerodrome Forecast
Issued by NWS

Home | Current Version | Previous Version | Text Only | Print | Product List | Glossary On
Versions: 1 2 3 4 5 6 7 8 9 10 11 12 13 14 15 16 17 18 19 20 21 22 23 24 25 26
000
FTUS42 KGSP 022330
TAFGMU
TAF
KGMU 022330Z 0300/0324 06005KT P6SM FEW050 OVC250
     FM030500 05008KT P6SM OVC025
     FM030800 05008KT 4SM -RA OVC015
     FM031200 05008KT 4SM -RA OVC008
     FM031500 04006KT 4SM -RA OVC006=

USA.gov is the U.S. government's official web portal to all federal, state and local government web resources and services.